Map

Track Data

SID SEASON NUMBER BASIN SUBBASIN NAME ISO_TIME NATURE LAT LON WMO_WIND WMO_PRES WMO_AGENCY TRACK_TYPE DIST2LAND LANDFALL IFLAG USA_AGENCY USA_ATCF_ID USA_LAT USA_LON USA_RECORD USA_STATUS USA_WIND USA_PRES USA_SSHS USA_R34_NE USA_R34_SE USA_R34_SW USA_R34_NW USA_R50_NE USA_R50_SE USA_R50_SW USA_R50_NW USA_R64_NE USA_R64_SE USA_R64_SW USA_R64_NW USA_POCI USA_ROCI USA_RMW USA_EYE TOKYO_LAT TOKYO_LON TOKYO_GRADE TOKYO_WIND TOKYO_PRES TOKYO_R50_DIR TOKYO_R50_LONG TOKYO_R50_SHORT TOKYO_R30_DIR TOKYO_R30_LONG TOKYO_R30_SHORT TOKYO_LAND CMA_LAT CMA_LON CMA_CAT CMA_WIND CMA_PRES HKO_LAT HKO_LON HKO_CAT HKO_WIND HKO_PRES NEWDELHI_LAT NEWDELHI_LON NEWDELHI_GRADE NEWDELHI_WIND NEWDELHI_PRES NEWDELHI_CI NEWDELHI_DP NEWDELHI_POCI REUNION_LAT REUNION_LON REUNION_TYPE REUNION_WIND REUNION_PRES REUNION_TNUM REUNION_CI REUNION_RMW REUNION_R34_NE REUNION_R34_SE REUNION_R34_SW REUNION_R34_NW REUNION_R50_NE REUNION_R50_SE REUNION_R50_SW REUNION_R50_NW REUNION_R64_NE REUNION_R64_SE REUNION_R64_SW REUNION_R64_NW BOM_LAT BOM_LON BOM_TYPE BOM_WIND BOM_PRES BOM_TNUM BOM_CI BOM_RMW BOM_R34_NE BOM_R34_SE BOM_R34_SW BOM_R34_NW BOM_R50_NE BOM_R50_SE BOM_R50_SW BOM_R50_NW BOM_R64_NE BOM_R64_SE BOM_R64_SW BOM_R64_NW BOM_ROCI BOM_POCI BOM_EYE BOM_POS_METHOD BOM_PRES_METHOD NADI_LAT NADI_LON NADI_CAT NADI_WIND NADI_PRES WELLINGTON_LAT WELLINGTON_LON WELLINGTON_WIND WELLINGTON_PRES DS824_LAT DS824_LON DS824_STAGE DS824_WIND DS824_PRES TD9636_LAT TD9636_LON TD9636_STAGE TD9636_WIND TD9636_PRES TD9635_LAT TD9635_LON TD9635_WIND TD9635_PRES TD9635_ROCI NEUMANN_LAT NEUMANN_LON NEUMANN_CLASS NEUMANN_WIND NEUMANN_PRES MLC_LAT MLC_LON MLC_CLASS MLC_WIND MLC_PRES USA_GUST BOM_GUST BOM_GUST_PER REUNION_GUST REUNION_GUST_PER USA_SEAHGT USA_SEARAD_NE USA_SEARAD_SE USA_SEARAD_SW USA_SEARAD_NW STORM_SPEED STORM_DIR
1861255N13337 1861 23 NA NA NOT_NAMED 1861-09-11 12:00:00 TS 13.5000 -23.4000 main 650 650 _____________O -1 13.5000 -23.4000 TD 30 12 295
1861255N13337 1861 23 NA NA NOT_NAMED 1861-09-11 15:00:00 TS 13.7477 -23.9498 main 699 699 _____________P -1 13.7477 -23.9498 TD 30 12 295
1861255N13337 1861 23 NA NA NOT_NAMED 1861-09-11 18:00:00 TS 14.0000 -24.5000 main 758 758 _____________O -1 14.0000 -24.5000 TD 30 12 296
1861255N13337 1861 23 NA NA NOT_NAMED 1861-09-11 21:00:00 TS 14.2574 -25.0501 main 819 819 _____________P -1 14.2574 -25.0501 TD 32 12 295
1861255N13337 1861 23 NA NA NOT_NAMED 1861-09-12 00:00:00 TS 14.5000 -25.6000 main 872 872 _____________O -1 14.5000 -25.6000 TS 35 12 293
1861255N13337 1861 23 NA NA NOT_NAMED 1861-09-12 03:00:00 TS 14.6999 -26.1502 main 936 936 _____________P -1 14.6999 -26.1502 TS 35 11 291
1861255N13337 1861 23 NA NA NOT_NAMED 1861-09-12 06:00:00 TS 14.9000 -26.7000 main 989 989 _____________O -1 14.9000 -26.7000 TS 35 12 293
1861255N13337 1861 23 NA NA NOT_NAMED 1861-09-12 09:00:00 TS 15.1499 -27.2500 main 1054 1054 _____________P -1 15.1499 -27.2500 TS 35 12 295
1861255N13337 1861 23 NA NA NOT_NAMED 1861-09-12 12:00:00 TS 15.4000 -27.8000 main 1109 1109 _____________O -1 15.4000 -27.8000 TS 35 12 293
1861255N13337 1861 23 NA NA NOT_NAMED 1861-09-12 15:00:00 TS 15.5999 -28.3502 main 1174 1174 _____________P -1 15.5999 -28.3502 TS 35 11 291
1861255N13337 1861 23 NA NA NOT_NAMED 1861-09-12 18:00:00 TS 15.8000 -28.9000 main 1229 1229 _____________O -1 15.8000 -28.9000 TS 35 12 293
1861255N13337 1861 23 NA NA NOT_NAMED 1861-09-12 21:00:00 TS 16.0499 -29.4500 main 1295 1295 _____________P -1 16.0499 -29.4500 TS 37 12 295
1861255N13337 1861 23 NA NA NOT_NAMED 1861-09-13 00:00:00 TS 16.3000 -30.0000 main 1351 1351 _____________O -1 16.3000 -30.0000 TS 40 12 293
1861255N13337 1861 23 NA NA NOT_NAMED 1861-09-13 03:00:00 TS 16.4999 -30.5502 main 1417 1417 _____________P -1 16.4999 -30.5502 TS 40 11 291
1861255N13337 1861 23 NA NA NOT_NAMED 1861-09-13 06:00:00 TS 16.7000 -31.1000 main 1473 1473 _____________O -1 16.7000 -31.1000 TS 40 11 293
1861255N13337 1861 23 NA NA NOT_NAMED 1861-09-13 09:00:00 TS 16.9499 -31.6500 main 1539 1539 _____________P -1 16.9499 -31.6500 TS 42 12 295
1861255N13337 1861 23 NA NA NOT_NAMED 1861-09-13 12:00:00 TS 17.2000 -32.2000 main 1596 1596 _____________O -1 17.2000 -32.2000 TS 45 11 293
1861255N13337 1861 23 NA NA NOT_NAMED 1861-09-13 15:00:00 TS 17.3998 -32.7503 main 1662 1662 _____________P -1 17.3998 -32.7503 TS 45 11 291
1861255N13337 1861 23 NA NA NOT_NAMED 1861-09-13 18:00:00 TS 17.6000 -33.3000 main 1718 1718 _____________O -1 17.6000 -33.3000 TS 45 11 293
1861255N13337 1861 23 NA NA NOT_NAMED 1861-09-13 21:00:00 TS 17.8498 -33.8500 main 1774 1784 _____________P -1 17.8498 -33.8500 TS 47 12 296
1861255N13337 1861 23 NA NA NOT_NAMED 1861-09-14 00:00:00 TS 18.1000 -34.4000 main 1837 1837 _____________O -1 18.1000 -34.4000 TS 50 11 293
1861255N13337 1861 23 NA NA NOT_NAMED 1861-09-14 03:00:00 TS 18.2998 -34.9503 main 1895 1895 _____________P -1 18.2998 -34.9503 TS 50 11 291
1861255N13337 1861 23 NA NA NOT_NAMED 1861-09-14 06:00:00 TS 18.5000 -35.5000 main 1942 1942 _____________O -1 18.5000 -35.5000 TS 50 11 293
1861255N13337 1861 23 NA NA NOT_NAMED 1861-09-14 09:00:00 TS 18.7498 -36.0500 main 2000 1999 _____________P -1 18.7498 -36.0500 TS 52 12 296
1861255N13337 1861 23 NA NA NOT_NAMED 1861-09-14 12:00:00 TS 19.0000 -36.6000 main 2047 2047 _____________O -1 19.0000 -36.6000 TS 55 11 293
1861255N13337 1861 23 NA NA NOT_NAMED 1861-09-14 15:00:00 TS 19.1998 -37.1503 main 2106 2106 _____________P -1 19.1998 -37.1503 TS 55 11 291
1861255N13337 1861 23 NA NA NOT_NAMED 1861-09-14 18:00:00 TS 19.4000 -37.7000 main 2155 2155 _____________O -1 19.4000 -37.7000 TS 55 11 293
1861255N13337 1861 23 NA NA NOT_NAMED 1861-09-14 21:00:00 TS 19.6498 -38.2500 main 2214 2208 _____________P -1 19.6498 -38.2500 TS 57 12 296
1861255N13337 1861 23 NA NA NOT_NAMED 1861-09-15 00:00:00 TS 19.9000 -38.8000 main 2210 2193 _____________O -1 19.9000 -38.8000 TS 60 11 294
1861255N13337 1861 23 NA NA NOT_NAMED 1861-09-15 03:00:00 TS 20.0998 -39.3503 main 2189 2175 _____________P -1 20.0998 -39.3503 TS 60 11 291
1861255N13337 1861 23 NA NA NOT_NAMED 1861-09-15 06:00:00 TS 20.3000 -39.9000 main 2175 2161 _____________O -1 20.3000 -39.9000 TS 60 11 294
1861255N13337 1861 23 NA NA NOT_NAMED 1861-09-15 09:00:00 TS 20.5498 -40.4500 main 2155 2146 _____________P -1 20.5498 -40.4500 TS 60 11 296
1861255N13337 1861 23 NA NA NOT_NAMED 1861-09-15 12:00:00 TS 20.8000 -41.0000 main 2149 2133 _____________O -1 20.8000 -41.0000 TS 60 11 294
1861255N13337 1861 23 NA NA NOT_NAMED 1861-09-15 15:00:00 TS 20.9998 -41.5503 main 2130 2119 _____________P -1 20.9998 -41.5503 TS 62 11 291
1861255N13337 1861 23 NA NA NOT_NAMED 1861-09-15 18:00:00 TS 21.2000 -42.1000 main 2119 2110 _____________O -1 21.2000 -42.1000 HU 65 11 294
1861255N13337 1861 23 NA NA NOT_NAMED 1861-09-15 21:00:00 TS 21.4498 -42.6500 main 2104 2102 _____________P -1 21.4498 -42.6500 HU 65 11 296
1861255N13337 1861 23 NA NA NOT_NAMED 1861-09-16 00:00:00 TS 21.7000 -43.2000 main 2106 2096 _____________O -1 21.7000 -43.2000 HU 65 11 294
1861255N13337 1861 23 NA NA NOT_NAMED 1861-09-16 03:00:00 TS 21.8998 -43.7503 main 2095 2090 _____________P -1 21.8998 -43.7503 HU 65 11 291
1861255N13337 1861 23 NA NA NOT_NAMED 1861-09-16 06:00:00 TS 22.1000 -44.3000 main 2091 2086 _____________O -1 22.1000 -44.3000 HU 65 11 294
1861255N13337 1861 23 NA NA NOT_NAMED 1861-09-16 09:00:00 TS 22.3498 -44.8500 main 2084 2084 _____________P -1 22.3498 -44.8500 HU 67 11 296
1861255N13337 1861 23 NA NA NOT_NAMED 1861-09-16 12:00:00 TS 22.6000 -45.4000 main 2093 2085 _____________O -1 22.6000 -45.4000 HU 70 11 294
1861255N13337 1861 23 NA NA NOT_NAMED 1861-09-16 15:00:00 TS 22.7999 -45.9578 main 2086 2050 _____________P -1 22.7999 -45.9578 HU 70 11 292
1861255N13337 1861 23 NA NA NOT_NAMED 1861-09-16 18:00:00 TS 23.0000 -46.5000 main 2050 2004 _____________O -1 23.0000 -46.5000 HU 70 11 293
1861255N13337 1861 23 NA NA NOT_NAMED 1861-09-16 21:00:00 TS 23.2198 -47.0079 main 2004 1962 _____________P -1 23.2198 -47.0079 HU 72 10 299
1861255N13337 1861 23 NA NA NOT_NAMED 1861-09-17 00:00:00 TS 23.5000 -47.5000 main 1962 1923 _____________O -1 23.5000 -47.5000 HU 75 11 306
1861255N13337 1861 23 NA NA NOT_NAMED 1861-09-17 03:00:00 TS 23.8773 -48.0001 main 1923 1887 _____________P -1 23.8773 -48.0001 HU 77 12 311
1861255N13337 1861 23 NA NA NOT_NAMED 1861-09-17 06:00:00 TS 24.3000 -48.5000 main 1887 1849 _____________O -1 24.3000 -48.5000 HU 80 13 311
1861255N13337 1861 23 NA NA NOT_NAMED 1861-09-17 09:00:00 TS 24.7002 -49.0449 main 1853 1821 _____________P -1 24.7002 -49.0449 HU 80 12 311
1861255N13337 1861 23 NA NA NOT_NAMED 1861-09-17 12:00:00 TS 25.1000 -49.5000 main 1821 1810 _____________O -1 25.1000 -49.5000 HU 80 10 321
1861255N13337 1861 23 NA NA NOT_NAMED 1861-09-17 15:00:00 TS 25.4997 -49.7530 main 1810 1810 _____________P -1 25.4997 -49.7530 HU 80 9 336
1861255N13337 1861 23 NA NA NOT_NAMED 1861-09-17 18:00:00 TS 25.9000 -49.9000 main 1818 1814 _____________O -1 25.9000 -49.9000 HU 80 8 340
1861255N13337 1861 23 NA NA NOT_NAMED 1861-09-17 21:00:00 TS 26.2700 -50.0652 main 1819 1819 _____________P -1 26.2700 -50.0652 HU 80 8 341
1861255N13337 1861 23 NA NA NOT_NAMED 1861-09-18 00:00:00 TS 26.7000 -50.2000 main 1830 1830 _____________O -1 26.7000 -50.2000 HU 80 10 348
1861255N13337 1861 23 NA NA NOT_NAMED 1861-09-18 03:00:00 TS 27.2775 -50.3150 main 1853 1853 _____________P -1 27.2775 -50.3150 HU 77 12 352
1861255N13337 1861 23 NA NA NOT_NAMED 1861-09-18 06:00:00 TS 27.9000 -50.4000 main 1878 1878 _____________O -1 27.9000 -50.4000 HU 75 12 352
1861255N13337 1861 23 NA NA NOT_NAMED 1861-09-18 09:00:00 TS 28.4649 -50.5020 main 1905 1905 _____________P -1 28.4649 -50.5020 HU 72 11 355
1861255N13337 1861 23 NA NA NOT_NAMED 1861-09-18 12:00:00 TS 29.0000 -50.5000 main 1936 1920 _____________O -1 29.0000 -50.5000 HU 70 11 10
1861255N13337 1861 23 NA NA NOT_NAMED 1861-09-18 15:00:00 TS 29.5151 -50.2955 main 1920 1868 _____________P -1 29.5151 -50.2955 HU 70 11 24
1861255N13337 1861 23 NA NA NOT_NAMED 1861-09-18 18:00:00 TS 30.0000 -50.0000 main 1868 1825 _____________O -1 30.0000 -50.0000 HU 70 10 22
1861255N13337 1861 23 NA NA NOT_NAMED 1861-09-18 21:00:00 TS 30.4032 -49.8812 main 1825 1776 _____________P -1 30.4032 -49.8812 HU 67 10 26
1861255N13337 1861 23 NA NA NOT_NAMED 1861-09-19 00:00:00 TS 30.9000 -49.5000 main 1776 1715 _____________O -1 30.9000 -49.5000 HU 65 17 44
1861255N13337 1861 23 NA NA NOT_NAMED 1861-09-19 03:00:00 TS 31.6492 -48.4871 main 1717 1647 _____________P -1 31.6492 -48.4871 HU 60 25 51
1861255N13337 1861 23 NA NA NOT_NAMED 1861-09-19 06:00:00 TS 32.5000 -47.2000 main 1649 1596 _____________O -1 32.5000 -47.2000 TS 55 27 51
1861255N13337 1861 23 NA NA NOT_NAMED 1861-09-19 09:00:00 TS 33.3177 -46.0068 main 1599 1551 _____________P -1 33.3177 -46.0068 TS 50 25 50
1861255N13337 1861 23 NA NA NOT_NAMED 1861-09-19 12:00:00 ET 34.1000 -44.9000 main 1555 _____________O -1 34.1000 -44.9000 EX 45 24 50

About IBTrACS Database

This database is a web-friendly format of International Best Track Archive for Climate Stewardship (IBTrACS), a global best track data archive curated by NOAA dating back to 1842.

Updated: 2021-10-21